Time;durP1;ratioP1;P1;durP2;ratioP2;P2;SDS_P1;SDS_P2;PMS_P1;PMS_P2;Temp;Humidity;BMP_temperature;BMP_pressure;BME280_temperature;BME280_humidity;BME280_pressure;Samples;Min_cycle;Max_cycle;Signal;HPM_P1;HPM_P2
2022/08/18 00:01:49;;;;;;;9.40;6.57;;;22.30;97.90;;;;;;4973918;28;20109;-80
2022/08/18 00:04:15;;;;;;;8.80;6.32;;;22.30;98.10;;;;;;4974821;28;20030;-79
2022/08/18 00:06:41;;;;;;;10.60;7.00;;;22.30;98.00;;;;;;4974732;28;20037;-78
2022/08/18 00:09:09;;;;;;;10.88;7.15;;;22.30;97.90;;;;;;4973035;28;20153;-78
2022/08/18 00:11:41;;;;;;;9.40;7.22;;;22.30;98.00;;;;;;4974703;28;20031;-79
2022/08/18 00:14:10;;;;;;;10.10;7.65;;;22.30;98.00;;;;;;4974904;28;20030;-78
2022/08/18 00:16:36;;;;;;;13.68;7.45;;;22.30;98.10;;;;;;4974496;28;20509;-77
2022/08/18 00:19:02;;;;;;;10.98;7.03;;;22.20;98.30;;;;;;4973408;28;20443;-78
2022/08/18 00:21:28;;;;;;;13.52;8.02;;;22.20;98.30;;;;;;4974316;28;20059;-79
2022/08/18 00:23:53;;;;;;;9.77;7.72;;;22.30;98.30;;;;;;4974215;28;20114;-78
2022/08/18 00:26:19;;;;;;;17.80;9.18;;;22.30;98.20;;;;;;4973969;28;20122;-79
2022/08/18 00:28:45;;;;;;;10.88;8.13;;;22.20;98.50;;;;;;4974342;28;20035;-80
2022/08/18 00:31:10;;;;;;;9.77;7.88;;;22.20;98.60;;;;;;4973965;28;20109;-78
2022/08/18 00:33:36;;;;;;;14.52;9.20;;;22.30;98.50;;;;;;4973973;28;20033;-79
2022/08/18 00:36:02;;;;;;;13.50;8.98;;;22.30;98.60;;;;;;4973308;28;20501;-81
2022/08/18 00:38:27;;;;;;;14.18;9.35;;;22.30;98.80;;;;;;4972964;28;20045;-78
2022/08/18 00:40:54;;;;;;;11.80;8.60;;;22.30;98.80;;;;;;4973397;28;20062;-79
2022/08/18 00:43:47;;;;;;;14.35;10.85;;;22.40;98.60;;;;;;4973788;28;20035;-79
2022/08/18 00:46:18;;;;;;;20.40;12.07;;;22.30;98.90;;;;;;4971195;28;20461;-78
2022/08/18 00:48:45;;;;;;;12.15;9.40;;;22.20;99.10;;;;;;4972520;28;20038;-79
2022/08/18 00:51:24;;;;;;;17.80;10.30;;;22.30;98.90;;;;;;4973706;28;20030;-79
2022/08/18 00:53:57;;;;;;;15.88;10.02;;;22.40;98.70;;;;;;4973527;28;20038;-78
2022/08/18 00:56:32;;;;;;;14.50;9.45;;;22.50;98.50;;;;;;4973532;28;20038;-79
2022/08/18 00:59:28;;;;;;;14.38;10.43;;;22.50;98.60;;;;;;4973874;28;20030;-81
2022/08/18 01:02:01;;;;;;;15.02;10.57;;;22.50;98.80;;;;;;4973204;28;20090;-79
2022/08/18 01:05:07;;;;;;;14.90;10.93;;;22.60;98.60;;;;;;4973567;28;20050;-79
2022/08/18 01:07:43;;;;;;;16.08;12.20;;;22.60;98.90;;;;;;4972928;28;20038;-78
2022/08/18 01:10:14;;;;;;;16.13;10.88;;;22.60;98.70;;;;;;4973440;28;20157;-78
2022/08/18 01:12:40;;;;;;;16.05;10.48;;;22.50;98.80;;;;;;4972318;28;20067;-79
2022/08/18 01:15:06;;;;;;;15.48;11.38;;;22.40;98.90;;;;;;4972319;28;20059;-79
2022/08/18 01:23:21;;;;;;;17.77;12.38;;;22.30;99.00;;;;;;4985877;28;20050;-79
2022/08/18 01:28:48;;;;;;;19.85;13.25;;;22.20;99.50;;;;;;4961135;28;20189;-79
2022/08/18 01:31:36;;;;;;;24.65;14.38;;;22.30;99.50;;;;;;4971895;28;20023;-79
2022/08/18 01:34:05;;;;;;;23.25;15.38;;;22.30;99.50;;;;;;4973030;28;20038;-81
2022/08/18 01:36:36;;;;;;;20.05;14.52;;;22.30;99.60;;;;;;4986198;28;20526;-80
2022/08/18 01:39:03;;;;;;;19.83;14.07;;;22.40;99.50;;;;;;4991036;28;20472;-81
2022/08/18 01:41:29;;;;;;;18.90;13.25;;;22.40;99.40;;;;;;4992427;28;20023;-79
2022/08/18 01:43:57;;;;;;;19.95;14.48;;;22.50;99.00;;;;;;4992538;28;20030;-80
2022/08/18 01:46:23;;;;;;;21.08;15.05;;;22.50;99.10;;;;;;4992617;28;20135;-79
2022/08/18 01:48:49;;;;;;;16.90;13.10;;;22.50;99.00;;;;;;4992090;28;20098;-78
2022/08/18 01:51:16;;;;;;;19.65;13.48;;;22.60;99.10;;;;;;4991945;28;20034;-78
2022/08/18 01:53:43;;;;;;;17.58;12.75;;;22.60;99.10;;;;;;4991705;28;20480;-79
2022/08/18 01:56:09;;;;;;;17.05;11.07;;;22.60;99.20;;;;;;4992379;28;20029;-78
2022/08/18 01:58:35;;;;;;;15.02;11.30;;;22.50;99.10;;;;;;4992036;28;20050;-79
2022/08/18 02:01:02;;;;;;;16.15;11.70;;;22.50;99.00;;;;;;4990871;28;20035;-80
2022/08/18 02:03:33;;;;;;;23.40;15.90;;;22.50;99.10;;;;;;4990947;28;20031;-80
2022/08/18 02:06:01;;;;;;;17.08;13.43;;;22.40;99.40;;;;;;4990668;28;20373;-79
2022/08/18 02:08:27;;;;;;;25.05;16.55;;;22.50;99.30;;;;;;4991660;28;20117;-78
2022/08/18 02:10:53;;;;;;;26.90;18.02;;;22.40;99.50;;;;;;4990988;28;20049;-79
2022/08/18 02:13:19;;;;;;;26.13;16.95;;;22.40;99.40;;;;;;4992037;28;20039;-79
2022/08/18 02:15:45;;;;;;;24.20;18.60;;;22.40;99.70;;;;;;4991762;28;20030;-79
2022/08/18 02:18:16;;;;;;;32.25;20.55;;;22.30;99.90;;;;;;4990894;28;20038;-78
2022/08/18 02:20:42;;;;;;;28.65;20.45;;;22.30;99.90;;;;;;4991927;28;20050;-78
2022/08/18 02:23:09;;;;;;;30.02;20.48;;;22.20;99.90;;;;;;4992363;28;20020;-80
2022/08/18 02:25:35;;;;;;;28.45;20.23;;;22.20;99.90;;;;;;4990457;28;20170;-80
2022/08/18 02:28:00;;;;;;;29.65;20.88;;;22.20;99.90;;;;;;4991477;28;20117;-79
2022/08/18 02:30:26;;;;;;;33.45;20.80;;;22.30;99.90;;;;;;4991459;28;20026;-80
2022/08/18 02:32:51;;;;;;;30.40;20.42;;;22.10;99.90;;;;;;4991597;28;20057;-79
2022/08/18 02:35:17;;;;;;;26.50;19.77;;;22.20;99.90;;;;;;4990858;28;20344;-79
2022/08/18 02:37:46;;;;;;;24.15;16.55;;;22.10;99.90;;;;;;4991830;28;20073;-78
2022/08/18 02:40:13;;;;;;;25.83;19.90;;;22.10;99.90;;;;;;4991589;28;20069;-78
2022/08/18 02:42:39;;;;;;;26.77;19.87;;;22.20;99.90;;;;;;4991762;28;20036;-79
2022/08/18 02:45:05;;;;;;;26.90;19.50;;;22.20;99.90;;;;;;4991527;28;20034;-78
2022/08/18 02:47:31;;;;;;;26.65;20.13;;;22.30;99.90;;;;;;4991310;28;20114;-79
2022/08/18 02:49:57;;;;;;;32.33;21.88;;;22.20;99.90;;;;;;4990851;28;20521;-79
2022/08/18 02:52:28;;;;;;;28.15;21.15;;;22.20;99.90;;;;;;4991434;28;20440;-77
2022/08/18 02:54:54;;;;;;;33.83;22.75;;;22.20;99.90;;;;;;4990253;28;20118;-79
2022/08/18 02:57:21;;;;;;;33.65;23.42;;;22.00;99.90;;;;;;4991256;28;20132;-78
2022/08/18 02:59:46;;;;;;;32.65;23.75;;;22.00;99.90;;;;;;4993526;28;20077;-79
2022/08/18 03:02:12;;;;;;;31.88;23.15;;;22.00;99.90;;;;;;4995175;28;20031;-78
2022/08/18 03:04:38;;;;;;;34.75;24.20;;;22.10;99.90;;;;;;4995909;28;20460;-79
2022/08/18 03:07:06;;;;;;;36.00;24.55;;;22.00;99.90;;;;;;4995146;28;20432;-78
2022/08/18 03:09:33;;;;;;;36.15;24.27;;;22.00;99.90;;;;;;4994846;28;20062;-79
2022/08/18 03:11:59;;;;;;;36.63;25.37;;;21.90;99.90;;;;;;4994831;28;20485;-77
2022/08/18 03:14:25;;;;;;;33.40;23.95;;;21.90;99.90;;;;;;4995033;28;20088;-80
2022/08/18 03:16:51;;;;;;;36.55;24.70;;;21.90;99.90;;;;;;4995561;28;20040;-77
2022/08/18 03:19:16;;;;;;;41.30;25.17;;;21.80;99.90;;;;;;4995051;28;20108;-77
2022/08/18 03:21:45;;;;;;;37.15;24.90;;;21.80;99.90;;;;;;4994779;28;20112;-78
2022/08/18 03:24:11;;;;;;;37.17;25.80;;;21.80;99.90;;;;;;4994906;28;20413;-77
2022/08/18 03:26:44;;;;;;;38.25;25.73;;;21.80;99.90;;;;;;4994689;28;20043;-79
2022/08/18 03:29:13;;;;;;;37.90;26.20;;;21.60;99.90;;;;;;4994001;28;20475;-79
2022/08/18 03:31:42;;;;;;;37.70;25.67;;;21.60;99.90;;;;;;4994886;28;20062;-79
2022/08/18 03:34:07;;;;;;;39.58;28.30;;;21.50;99.90;;;;;;4994742;28;20050;-79
2022/08/18 03:36:35;;;;;;;37.90;26.40;;;21.50;99.90;;;;;;4994472;28;20469;-80
2022/08/18 03:39:04;;;;;;;41.20;27.10;;;21.60;99.90;;;;;;4994560;28;20038;-77
2022/08/18 03:41:30;;;;;;;37.50;25.30;;;21.50;99.90;;;;;;4993240;28;20035;-79
2022/08/18 03:43:56;;;;;;;34.17;24.02;;;21.60;99.90;;;;;;4994836;28;20092;-79
2022/08/18 03:46:32;;;;;;;33.63;22.83;;;21.50;99.90;;;;;;4994570;28;20460;-78
2022/08/18 03:48:59;;;;;;;33.63;23.08;;;21.50;99.90;;;;;;4994620;28;20050;-78
2022/08/18 03:51:27;;;;;;;31.48;21.83;;;21.40;99.90;;;;;;4994334;28;20069;-80
2022/08/18 03:53:59;;;;;;;32.67;21.38;;;21.40;99.90;;;;;;4993380;28;20104;-78
2022/08/18 03:56:34;;;;;;;27.88;20.65;;;21.40;99.90;;;;;;4994295;28;20026;-77
2022/08/18 03:59:03;;;;;;;30.95;21.08;;;21.30;99.90;;;;;;4994751;28;20038;-79
2022/08/18 04:01:32;;;;;;;34.40;21.90;;;21.30;99.90;;;;;;4994336;28;20121;-80
2022/08/18 04:04:01;;;;;;;26.70;20.65;;;21.20;99.90;;;;;;4994205;28;20046;-77
2022/08/18 04:06:44;;;;;;;28.20;19.77;;;21.30;99.90;;;;;;4994222;28;20034;-80
2022/08/18 04:09:13;;;;;;;32.53;20.55;;;21.20;99.90;;;;;;4993691;28;20243;-76
2022/08/18 04:11:43;;;;;;;27.33;19.17;;;21.10;99.90;;;;;;4992995;28;20046;-80
2022/08/18 04:14:15;;;;;;;28.17;20.15;;;21.20;99.90;;;;;;4994245;28;20441;-80
2022/08/18 04:16:41;;;;;;;31.25;20.23;;;21.20;99.90;;;;;;4994233;28;20180;-80
2022/08/18 04:19:08;;;;;;;28.13;20.80;;;21.30;99.90;;;;;;4993841;28;20257;-80
2022/08/18 04:21:37;;;;;;;30.93;20.67;;;21.20;99.90;;;;;;4993164;28;20117;-79
2022/08/18 04:24:04;;;;;;;32.30;19.63;;;21.10;99.90;;;;;;4993980;28;20065;-80
2022/08/18 04:26:36;;;;;;;31.37;20.73;;;21.20;99.90;;;;;;4992496;28;20089;-80
2022/08/18 04:29:03;;;;;;;26.10;19.15;;;21.10;99.90;;;;;;4994219;28;20397;-78
2022/08/18 04:31:30;;;;;;;31.38;21.02;;;21.00;99.90;;;;;;4993977;28;20030;-79
2022/08/18 04:33:58;;;;;;;40.78;19.40;;;21.00;99.90;;;;;;4993549;28;20591;-79
2022/08/18 04:36:35;;;;;;;27.23;18.88;;;21.10;99.90;;;;;;4993482;28;20026;-80
2022/08/18 04:39:03;;;;;;;27.67;19.13;;;21.20;99.90;;;;;;4993638;28;20034;-79
2022/08/18 04:41:29;;;;;;;26.58;19.10;;;21.20;99.90;;;;;;4993267;28;20256;-79
2022/08/18 04:44:01;;;;;;;27.23;19.20;;;21.00;99.90;;;;;;4993569;28;20354;-80
2022/08/18 04:46:28;;;;;;;30.70;21.27;;;21.10;99.90;;;;;;4992404;28;20027;-80
2022/08/18 04:48:59;;;;;;;27.77;20.65;;;21.20;99.90;;;;;;4992109;28;20038;-79
2022/08/18 04:51:38;;;;;;;31.10;19.30;;;21.20;99.90;;;;;;4992263;28;20061;-78
2022/08/18 04:54:04;;;;;;;31.20;20.30;;;21.10;99.90;;;;;;4993049;28;20038;-78
2022/08/18 04:56:33;;;;;;;32.03;19.85;;;21.10;99.90;;;;;;4992956;28;20046;-79
2022/08/18 04:59:05;;;;;;;28.85;20.63;;;21.20;99.90;;;;;;4993290;28;20026;-79
2022/08/18 05:01:41;;;;;;;28.63;20.17;;;21.20;99.90;;;;;;4993524;28;20404;-79
2022/08/18 05:04:07;;;;;;;30.98;20.45;;;21.30;99.90;;;;;;4993608;28;20026;-81
2022/08/18 05:06:35;;;;;;;30.52;21.25;;;21.30;99.90;;;;;;4991771;28;20168;-81
2022/08/18 05:09:05;;;;;;;30.73;22.73;;;21.30;99.90;;;;;;4993407;28;20057;-77
2022/08/18 05:11:32;;;;;;;37.22;22.13;;;21.40;99.90;;;;;;4993056;28;20038;-77
2022/08/18 05:13:59;;;;;;;31.55;22.08;;;21.30;99.90;;;;;;4992307;28;20035;-79
2022/08/18 05:16:28;;;;;;;32.67;21.90;;;21.30;99.90;;;;;;4992937;28;20445;-79
2022/08/18 05:18:56;;;;;;;34.35;21.92;;;21.30;99.90;;;;;;4991565;28;20444;-80
2022/08/18 05:21:23;;;;;;;35.00;22.55;;;21.30;99.90;;;;;;4992511;28;20116;-80
2022/08/18 05:23:50;;;;;;;32.83;21.45;;;21.30;99.90;;;;;;4991427;28;20030;-80
2022/08/18 05:26:20;;;;;;;31.33;22.27;;;21.40;99.90;;;;;;4992539;28;20073;-79
2022/08/18 05:28:47;;;;;;;39.35;23.45;;;21.50;99.90;;;;;;4993002;28;20472;-80
2022/08/18 05:31:24;;;;;;;31.95;22.48;;;21.30;99.90;;;;;;4992998;28;20058;-79
2022/08/18 05:33:51;;;;;;;36.72;22.60;;;21.30;99.90;;;;;;4992504;28;20213;-79
2022/08/18 05:36:52;;;;;;;32.88;22.13;;;21.20;99.90;;;;;;4992651;28;20034;-79
2022/08/18 05:39:22;;;;;;;38.72;24.42;;;21.30;99.90;;;;;;4992503;28;20045;-80
2022/08/18 05:41:54;;;;;;;37.53;23.45;;;21.30;99.90;;;;;;4992661;28;20038;-79
2022/08/18 05:44:33;;;;;;;36.30;23.63;;;21.30;99.90;;;;;;4991339;28;20168;-80
2022/08/18 05:47:10;;;;;;;35.55;24.02;;;21.30;99.90;;;;;;4991755;28;20057;-80
2022/08/18 05:49:36;;;;;;;38.80;24.50;;;21.30;99.90;;;;;;4990931;28;20104;-78
2022/08/18 05:52:26;;;;;;;36.90;24.25;;;21.40;99.90;;;;;;4991766;28;20346;-80
2022/08/18 05:58:15;;;;;;;36.80;23.17;;;21.40;99.90;;;;;;4991952;28;20056;-81
2022/08/18 06:00:47;;;;;;;41.42;24.80;;;21.50;99.90;;;;;;4992148;28;20026;-80
2022/08/18 06:03:18;;;;;;;33.75;24.08;;;21.50;99.90;;;;;;4990937;28;20034;-76
2022/08/18 06:05:56;;;;;;;36.65;24.65;;;21.60;99.90;;;;;;4992111;28;20034;-79
2022/08/18 06:08:26;;;;;;;37.90;25.52;;;21.60;99.90;;;;;;4991625;28;20092;-78
2022/08/18 06:10:53;;;;;;;35.97;25.38;;;21.50;99.90;;;;;;4992144;28;20047;-79
2022/08/18 06:13:19;;;;;;;41.25;25.42;;;21.60;99.90;;;;;;4992126;28;20037;-80
2022/08/18 06:16:27;;;;;;;39.17;27.00;;;21.60;99.90;;;;;;4991169;28;20038;-79
2022/08/18 06:18:52;;;;;;;;;;;21.70;99.90;;;;;;4992386;28;20041;-81
2022/08/18 06:21:50;;;;;;;40.67;26.75;;;21.70;99.90;;;;;;4991665;28;20287;-78
2022/08/18 06:24:32;;;;;;;47.08;29.33;;;21.60;99.90;;;;;;4990563;28;20030;-79
2022/08/18 06:27:03;;;;;;;44.33;28.20;;;21.60;99.90;;;;;;4990969;28;20480;-79
2022/08/18 06:30:07;;;;;;;46.78;28.15;;;21.70;99.90;;;;;;4991141;28;20283;-79
2022/08/18 06:33:04;;;;;;;45.30;30.45;;;21.80;99.90;;;;;;4970759;28;20114;-79
2022/08/18 06:35:48;;;;;;;50.95;31.70;;;21.80;99.90;;;;;;4990246;28;20090;-79
2022/08/18 06:38:39;;;;;;;44.50;30.55;;;21.80;99.90;;;;;;4991282;28;20034;-78
2022/08/18 06:41:44;;;;;;;51.42;32.92;;;21.90;99.90;;;;;;4990876;28;20076;-77
2022/08/18 06:44:15;;;;;;;52.83;32.90;;;21.80;99.90;;;;;;4991802;28;20030;-77
2022/08/18 06:46:52;;;;;;;52.33;35.75;;;21.90;99.90;;;;;;4992010;28;20022;-77
2022/08/18 06:49:31;;;;;;;57.70;35.30;;;21.80;99.90;;;;;;4990543;28;20376;-78
2022/08/18 06:51:57;;;;;;;61.38;36.50;;;21.80;99.90;;;;;;4991489;28;20034;-78
2022/08/18 06:54:27;;;;;;;55.53;37.42;;;21.80;99.90;;;;;;4991598;28;20027;-79
2022/08/18 06:56:54;;;;;;;61.22;38.50;;;21.80;99.90;;;;;;4991250;28;20122;-77
2022/08/18 06:59:32;;;;;;;59.55;38.38;;;21.80;99.90;;;;;;4991477;28;20465;-79
2022/08/18 07:02:01;;;;;;;;;;;21.80;99.90;;;;;;4992236;28;20030;-79
2022/08/18 07:04:34;;;;;;;65.38;41.40;;;21.70;99.90;;;;;;4990413;28;19917;-77
2022/08/18 07:07:11;;;;;;;71.38;43.05;;;21.60;99.90;;;;;;4991411;28;20190;-80
2022/08/18 07:09:37;;;;;;;82.80;45.80;;;21.50;99.90;;;;;;4990926;28;20054;-77
2022/08/18 07:12:06;;;;;;;80.97;45.67;;;21.40;99.90;;;;;;4991008;28;20510;-78
2022/08/18 07:14:45;;;;;;;84.78;45.88;;;21.50;99.90;;;;;;4989907;28;20030;-77
2022/08/18 07:17:18;;;;;;;88.18;47.67;;;21.50;99.90;;;;;;4991114;28;20383;-77
2022/08/18 07:20:01;;;;;;;79.13;44.50;;;21.60;99.90;;;;;;4990705;28;20026;-78
2022/08/18 07:22:28;;;;;;;79.53;43.90;;;21.60;99.90;;;;;;4991247;28;20042;-76
2022/08/18 07:24:58;;;;;;;79.88;44.67;;;21.50;99.90;;;;;;4991044;28;20033;-78
2022/08/18 07:27:40;;;;;;;81.10;43.25;;;21.50;99.90;;;;;;4990267;28;20035;-78
2022/08/18 07:30:29;;;;;;;74.15;42.70;;;21.70;99.90;;;;;;4991122;28;20038;-79
2022/08/18 07:33:04;;;;;;;69.32;39.78;;;21.70;99.90;;;;;;4991241;28;20136;-79
2022/08/18 07:35:40;;;;;;;57.65;34.92;;;21.80;99.90;;;;;;4990996;28;20084;-78
2022/08/18 07:38:31;;;;;;;58.22;35.92;;;21.60;99.90;;;;;;4991512;28;20463;-78
2022/08/18 07:41:29;;;;;;;56.65;34.38;;;21.70;99.90;;;;;;4983713;28;20353;-78
2022/08/18 07:44:17;;;;;;;;;;;21.70;99.90;;;;;;4991426;28;20058;-78
2022/08/18 07:46:47;;;;;;;47.80;30.60;;;21.60;99.90;;;;;;4994245;28;20228;-78
2022/08/18 07:49:20;;;;;;;49.50;30.15;;;21.70;99.90;;;;;;4993382;28;20041;-78
2022/08/18 07:52:01;;;;;;;49.13;30.77;;;21.80;99.90;;;;;;4994749;28;20098;-77
2022/08/18 07:54:37;;;;;;;50.72;30.08;;;21.90;99.90;;;;;;4993356;28;20026;-77
2022/08/18 07:57:12;;;;;;;66.13;36.38;;;21.80;99.90;;;;;;4994123;28;20042;-78
2022/08/18 07:59:46;;;;;;;66.25;36.92;;;21.70;99.90;;;;;;4994609;28;20030;-77
2022/08/18 08:02:14;;;;;;;67.80;38.38;;;21.70;99.90;;;;;;4994150;28;20034;-78
2022/08/18 08:04:40;;;;;;;70.05;36.83;;;21.60;99.90;;;;;;4994484;28;20026;-78
2022/08/18 08:07:13;;;;;;;76.00;38.88;;;21.60;99.90;;;;;;4993907;28;20031;-78
2022/08/18 08:10:07;;;;;;;73.97;39.15;;;21.70;99.90;;;;;;4993860;28;20060;-78
2022/08/18 08:12:42;;;;;;;79.53;40.03;;;21.90;99.90;;;;;;4994001;28;20113;-77
2022/08/18 08:15:21;;;;;;;62.97;36.30;;;21.80;99.90;;;;;;4992895;28;20157;-77
2022/08/18 08:18:08;;;;;;;66.28;36.15;;;21.90;99.90;;;;;;4993832;28;20056;-78
2022/08/18 08:20:47;;;;;;;67.33;36.03;;;22.00;99.90;;;;;;4993742;28;20030;-77
2022/08/18 08:23:39;;;;;;;71.78;38.72;;;22.20;99.90;;;;;;4993596;28;20287;-76
2022/08/18 08:26:49;;;;;;;66.22;36.60;;;22.20;99.90;;;;;;4994207;28;20026;-76
2022/08/18 08:29:52;;;;;;;65.95;36.92;;;22.30;99.90;;;;;;4993810;28;20050;-79
2022/08/18 08:32:28;;;;;;;63.35;34.67;;;22.30;99.90;;;;;;4993714;28;20562;-78
2022/08/18 08:35:12;;;;;;;60.83;33.50;;;22.40;99.90;;;;;;4992987;28;20049;-77
2022/08/18 08:37:42;;;;;;;53.00;32.17;;;22.60;99.80;;;;;;4992410;28;20476;-77
2022/08/18 08:40:26;;;;;;;49.70;30.02;;;22.80;99.30;;;;;;4993755;28;20030;-79
2022/08/18 08:43:10;;;;;;;51.40;31.10;;;22.80;99.20;;;;;;4993577;28;20096;-77
2022/08/18 08:45:43;;;;;;;46.58;29.23;;;23.10;99.00;;;;;;4993474;28;20100;-78
2022/08/18 08:48:28;;;;;;;47.97;28.58;;;23.30;98.60;;;;;;4993386;28;20035;-77
2022/08/18 08:51:30;;;;;;;48.50;28.33;;;23.60;98.40;;;;;;4993092;28;20107;-78
2022/08/18 08:54:44;;;;;;;47.03;27.90;;;24.20;97.50;;;;;;4993162;28;20512;-78
2022/08/18 08:57:12;;;;;;;49.22;30.20;;;24.70;96.90;;;;;;4986730;28;20057;-78
2022/08/18 08:59:39;;;;;;;39.58;25.42;;;25.50;96.40;;;;;;4993173;28;20046;-78
2022/08/18 09:02:07;;;;;;;36.30;25.80;;;26.20;96.80;;;;;;4993510;28;20472;-78
2022/08/18 09:04:56;;;;;;;37.72;25.52;;;26.60;93.40;;;;;;4992784;28;20030;-79
2022/08/18 09:07:44;;;;;;;38.20;25.58;;;26.50;94.20;;;;;;4992757;28;20045;-79
2022/08/18 09:10:28;;;;;;;36.35;23.75;;;26.90;92.90;;;;;;4992746;28;20065;-78
2022/08/18 09:13:27;;;;;;;32.25;20.60;;;27.80;92.00;;;;;;4992180;28;20062;-79
2022/08/18 09:15:57;;;;;;;30.80;21.88;;;28.70;91.00;;;;;;4991658;28;20053;-78
2022/08/18 09:18:51;;;;;;;34.67;23.27;;;28.50;88.40;;;;;;4992934;28;20045;-79
2022/08/18 09:21:43;;;;;;;30.02;21.83;;;27.90;90.00;;;;;;4992442;28;20468;-79
2022/08/18 09:24:24;;;;;;;26.35;19.40;;;28.70;90.50;;;;;;4992464;28;20053;-78
2022/08/18 09:27:22;;;;;;;29.20;21.65;;;30.10;85.90;;;;;;4991399;28;20472;-79
2022/08/18 09:29:50;;;;;;;30.70;21.58;;;29.30;84.20;;;;;;4975818;28;20049;-78
2022/08/18 09:32:19;;;;;;;32.05;23.55;;;29.50;85.70;;;;;;4992408;28;20101;-79
2022/08/18 09:35:00;;;;;;;28.83;20.42;;;30.10;84.20;;;;;;4992743;28;20081;-78
2022/08/18 09:37:43;;;;;;;30.90;21.05;;;30.40;83.30;;;;;;4992545;28;20125;-78
2022/08/18 09:43:16;;;;;;;30.75;20.95;;;30.00;83.30;;;;;;4992177;28;20108;-79
2022/08/18 09:45:45;;;;;;;34.10;24.02;;;30.20;81.90;;;;;;4992466;28;20365;-79
2022/08/18 09:48:23;;;;;;;29.38;21.88;;;29.80;82.30;;;;;;4991918;28;20053;-77
2022/08/18 09:50:55;;;;;;;27.75;20.75;;;29.90;82.40;;;;;;4992122;28;20038;-77
2022/08/18 09:53:53;;;;;;;28.98;21.40;;;30.30;82.80;;;;;;4990956;28;20026;-78
2022/08/18 09:56:50;;;;;;;25.58;18.08;;;29.60;81.70;;;;;;4992118;28;20026;-78
2022/08/18 09:59:31;;;;;;;31.67;22.55;;;29.90;82.30;;;;;;4992463;28;20053;-78
2022/08/18 10:01:58;;;;;;;26.08;19.92;;;30.40;80.70;;;;;;4992773;28;20026;-78
2022/08/18 10:04:30;;;;;;;24.17;18.08;;;31.00;79.40;;;;;;4991952;28;20057;-77
2022/08/18 10:07:36;;;;;;;26.15;19.02;;;31.50;80.00;;;;;;4991591;28;20027;-78
2022/08/18 10:10:26;;;;;;;19.80;14.55;;;31.90;77.70;;;;;;4973258;28;20074;-78
2022/08/18 10:12:58;;;;;;;24.27;17.92;;;32.40;74.60;;;;;;4991936;28;20508;-78
2022/08/18 10:15:35;;;;;;;24.98;17.48;;;32.50;73.70;;;;;;4991533;28;20046;-78
2022/08/18 10:18:28;;;;;;;25.75;18.80;;;32.50;73.90;;;;;;4990188;28;20042;-76
2022/08/18 10:21:28;;;;;;;21.85;15.52;;;32.20;73.70;;;;;;4991706;28;20113;-76
2022/08/18 10:23:57;;;;;;;23.73;17.23;;;31.80;73.70;;;;;;4991690;28;20034;-77
2022/08/18 10:26:37;;;;;;;24.13;16.83;;;31.40;75.10;;;;;;4991544;28;20026;-75
2022/08/18 10:29:10;;;;;;;21.13;16.10;;;31.20;75.40;;;;;;4991987;28;20033;-77
2022/08/18 10:31:54;;;;;;;23.77;17.52;;;30.80;75.40;;;;;;4991429;28;20038;-77
2022/08/18 10:34:38;;;;;;;21.48;16.70;;;30.50;76.90;;;;;;4990710;28;20035;-78
2022/08/18 10:37:32;;;;;;;28.88;17.58;;;29.80;78.30;;;;;;4991412;28;20030;-77
2022/08/18 10:40:11;;;;;;;20.50;15.80;;;29.90;77.90;;;;;;4991361;28;20046;-77
2022/08/18 10:42:40;;;;;;;21.05;14.40;;;29.30;79.00;;;;;;4991398;28;20030;-77
2022/08/18 10:45:27;;;;;;;16.80;13.82;;;29.50;79.40;;;;;;4991154;28;20095;-80
2022/08/18 10:48:25;;;;;;;19.03;13.20;;;29.30;79.90;;;;;;4992025;28;20138;-77
2022/08/18 10:51:00;;;;;;;23.23;15.73;;;29.40;80.50;;;;;;4990080;28;20400;-79
2022/08/18 10:53:45;;;;;;;22.45;14.02;;;29.10;80.00;;;;;;4991264;28;20035;-78
2022/08/18 10:56:48;;;;;;;23.92;14.52;;;28.80;80.60;;;;;;4991267;28;20022;-78
2022/08/18 10:59:37;;;;;;;19.83;14.48;;;28.70;81.80;;;;;;4991290;28;20022;-78
2022/08/18 11:02:20;;;;;;;17.65;12.65;;;28.70;81.20;;;;;;4991997;28;20041;-77
2022/08/18 11:04:48;;;;;;;17.55;13.00;;;28.70;81.10;;;;;;4991176;28;20038;-79
2022/08/18 11:07:34;;;;;;;17.58;13.38;;;28.40;81.40;;;;;;4991277;28;20092;-78
2022/08/18 11:10:15;;;;;;;17.92;13.32;;;28.60;82.00;;;;;;4990951;28;20358;-78
2022/08/18 11:13:09;;;;;;;20.90;13.00;;;28.60;81.10;;;;;;4991238;28;20041;-79
2022/08/18 11:15:56;;;;;;;16.42;10.68;;;28.50;81.60;;;;;;4991171;28;20121;-78
2022/08/18 11:18:42;;;;;;;18.30;12.60;;;28.60;81.30;;;;;;4991445;28;20034;-80
2022/08/18 11:21:33;;;;;;;19.33;13.23;;;28.30;81.00;;;;;;4994214;28;20473;-78
2022/08/18 11:24:07;;;;;;;13.45;10.25;;;28.60;81.50;;;;;;4994963;28;20030;-79
2022/08/18 11:26:41;;;;;;;17.33;10.30;;;28.00;82.00;;;;;;4994350;28;20108;-78
2022/08/18 11:29:33;;;;;;;15.95;11.73;;;28.20;81.40;;;;;;4995488;28;20018;-80
2022/08/18 11:32:10;;;;;;;14.65;8.68;;;28.20;81.70;;;;;;4995004;28;20037;-76
2022/08/18 11:34:50;;;;;;;11.70;9.07;;;28.50;81.20;;;;;;4995170;28;20042;-80
2022/08/18 11:37:19;;;;;;;11.10;8.23;;;28.60;81.00;;;;;;4993891;28;20046;-80
2022/08/18 11:39:50;;;;;;;10.95;7.32;;;28.30;81.10;;;;;;4994872;28;20049;-78
2022/08/18 11:42:18;;;;;;;10.95;7.88;;;28.50;80.10;;;;;;4994569;28;20031;-79
2022/08/18 11:44:45;;;;;;;9.43;7.78;;;28.40;80.00;;;;;;4994617;28;20030;-79
2022/08/18 11:47:19;;;;;;;10.15;8.20;;;28.50;79.70;;;;;;4994600;28;20030;-76
2022/08/18 11:50:10;;;;;;;11.07;7.55;;;28.20;80.40;;;;;;4994569;28;20023;-79
2022/08/18 11:52:51;;;;;;;11.20;7.35;;;28.20;81.40;;;;;;4989387;28;20104;-79
2022/08/18 11:55:26;;;;;;;10.32;7.47;;;28.40;80.60;;;;;;4994421;28;20023;-79
2022/08/18 11:57:54;;;;;;;10.77;7.45;;;28.60;80.10;;;;;;4993244;28;20448;-79
2022/08/18 12:00:56;;;;;;;18.13;8.70;;;28.60;79.80;;;;;;4994219;28;20049;-78
2022/08/18 12:03:25;;;;;;;9.32;7.15;;;28.40;79.70;;;;;;4994085;28;20085;-79
2022/08/18 12:05:59;;;;;;;12.82;6.18;;;28.20;79.40;;;;;;4994255;28;20118;-79
2022/08/18 12:08:46;;;;;;;7.03;5.88;;;28.10;80.10;;;;;;4993133;28;20038;-79
2022/08/18 12:11:25;;;;;;;8.43;6.43;;;28.40;79.70;;;;;;4993746;28;20445;-79
2022/08/18 12:14:05;;;;;;;7.80;6.07;;;28.40;79.80;;;;;;4993305;28;20057;-79
2022/08/18 12:16:49;;;;;;;8.15;6.20;;;28.60;79.70;;;;;;4993988;28;20308;-79
2022/08/18 12:19:16;;;;;;;9.63;6.40;;;28.60;79.80;;;;;;4993797;28;20026;-79
2022/08/18 12:21:51;;;;;;;9.80;5.75;;;28.60;79.30;;;;;;4993969;28;20038;-79
2022/08/18 12:24:35;;;;;;;6.90;5.90;;;28.50;79.30;;;;;;4993886;28;20109;-79
2022/08/18 12:27:08;;;;;;;9.27;5.15;;;28.50;79.30;;;;;;4994244;28;20057;-79
2022/08/18 12:29:34;;;;;;;7.88;6.30;;;28.70;79.20;;;;;;4993547;28;20040;-79
2022/08/18 12:31:59;;;;;;;10.23;6.78;;;28.40;80.20;;;;;;4993308;28;20117;-78
2022/08/18 12:34:26;;;;;;;9.73;7.13;;;28.40;81.60;;;;;;4992827;28;20045;-78
2022/08/18 12:36:54;;;;;;;14.57;6.30;;;28.30;80.90;;;;;;4992757;28;20364;-79
2022/08/18 12:39:19;;;;;;;10.50;6.18;;;28.30;81.50;;;;;;4992358;28;20038;-79
2022/08/18 12:42:29;;;;;;;12.30;6.05;;;28.60;81.20;;;;;;4993663;28;20038;-80
2022/08/18 12:44:54;;;;;;;10.23;6.03;;;28.50;79.70;;;;;;4993256;28;20045;-79
2022/08/18 12:47:25;;;;;;;9.13;7.22;;;28.60;78.80;;;;;;4993058;28;20022;-78
2022/08/18 12:49:52;;;;;;;9.63;6.57;;;28.40;79.10;;;;;;4993476;28;20117;-78
2022/08/18 12:52:19;;;;;;;10.60;8.57;;;28.20;79.80;;;;;;4993221;28;20026;-79
2022/08/18 12:54:46;;;;;;;13.70;8.23;;;28.10;79.50;;;;;;4992918;28;20382;-80
2022/08/18 12:57:25;;;;;;;9.68;7.15;;;28.20;79.60;;;;;;4993118;28;20461;-80
2022/08/18 12:59:53;;;;;;;9.50;6.00;;;28.10;79.70;;;;;;4992357;28;20037;-79
2022/08/18 13:02:20;;;;;;;;;;;27.90;80.90;;;;;;4993436;28;20018;-78
2022/08/18 13:04:46;;;;;;;8.40;5.30;;;28.20;80.50;;;;;;4992351;28;20029;-79
2022/08/18 13:07:19;;;;;;;9.73;5.97;;;28.10;79.90;;;;;;4992821;28;20034;-79
2022/08/18 13:09:45;;;;;;;6.45;5.35;;;28.20;79.20;;;;;;4992763;28;20050;-79
2022/08/18 13:12:10;;;;;;;8.68;5.80;;;28.00;79.50;;;;;;4992752;28;20106;-80
2022/08/18 13:14:37;;;;;;;7.05;5.35;;;28.20;80.00;;;;;;4991993;28;20424;-80
2022/08/18 13:17:02;;;;;;;8.23;5.80;;;28.40;79.80;;;;;;4992281;28;20057;-78
2022/08/18 13:19:28;;;;;;;11.05;6.25;;;28.40;79.60;;;;;;4991772;28;20066;-79
2022/08/18 13:21:54;;;;;;;6.28;5.53;;;28.30;79.60;;;;;;4992713;28;20026;-79
2022/08/18 13:24:20;;;;;;;7.70;6.05;;;28.40;80.20;;;;;;4991905;28;20072;-79